sensor_id;sensor_type;location;lat;lon;timestamp;temperature;humidity
30097;DHT22;16915;51.466;3.610;2023-12-04T00:01:47;2.90;99.90
30097;DHT22;16915;51.466;3.610;2023-12-04T00:04:13;3.00;99.90
30097;DHT22;16915;51.466;3.610;2023-12-04T00:06:39;3.00;99.90
30097;DHT22;16915;51.466;3.610;2023-12-04T00:09:04;3.00;99.90
30097;DHT22;16915;51.466;3.610;2023-12-04T00:11:30;3.00;99.90
30097;DHT22;16915;51.466;3.610;2023-12-04T00:13:56;3.10;99.90
30097;DHT22;16915;51.466;3.610;2023-12-04T00:16:21;3.10;99.90
30097;DHT22;16915;51.466;3.610;2023-12-04T00:18:47;3.10;99.90
30097;DHT22;16915;51.466;3.610;2023-12-04T00:21:13;3.10;99.90
30097;DHT22;16915;51.466;3.610;2023-12-04T00:23:38;3.10;99.90
30097;DHT22;16915;51.466;3.610;2023-12-04T00:26:04;3.10;99.90
30097;DHT22;16915;51.466;3.610;2023-12-04T00:28:30;3.10;99.90
30097;DHT22;16915;51.466;3.610;2023-12-04T00:30:55;3.10;99.90
30097;DHT22;16915;51.466;3.610;2023-12-04T00:33:21;3.10;99.90
30097;DHT22;16915;51.466;3.610;2023-12-04T00:35:46;3.10;99.90
30097;DHT22;16915;51.466;3.610;2023-12-04T00:38:12;3.10;99.90
30097;DHT22;16915;51.466;3.610;2023-12-04T00:40:37;3.00;99.90
30097;DHT22;16915;51.466;3.610;2023-12-04T00:43:03;3.00;99.90
30097;DHT22;16915;51.466;3.610;2023-12-04T00:45:28;3.00;99.90
30097;DHT22;16915;51.466;3.610;2023-12-04T00:47:54;3.00;99.90
30097;DHT22;16915;51.466;3.610;2023-12-04T00:50:20;3.00;99.90
30097;DHT22;16915;51.466;3.610;2023-12-04T00:52:45;2.90;99.90
30097;DHT22;16915;51.466;3.610;2023-12-04T00:55:11;2.90;99.90
30097;DHT22;16915;51.466;3.610;2023-12-04T00:57:36;2.90;99.90
30097;DHT22;16915;51.466;3.610;2023-12-04T01:00:03;2.80;99.90
30097;DHT22;16915;51.466;3.610;2023-12-04T01:02:29;2.90;99.90
30097;DHT22;16915;51.466;3.610;2023-12-04T01:04:54;2.90;99.90
30097;DHT22;16915;51.466;3.610;2023-12-04T01:07:20;2.90;99.90
30097;DHT22;16915;51.466;3.610;2023-12-04T01:09:45;2.90;99.90
30097;DHT22;16915;51.466;3.610;2023-12-04T01:12:11;2.90;99.90
30097;DHT22;16915;51.466;3.610;2023-12-04T01:14:36;2.90;99.90
30097;DHT22;16915;51.466;3.610;2023-12-04T01:17:05;2.90;99.90
30097;DHT22;16915;51.466;3.610;2023-12-04T01:19:31;2.90;99.90
30097;DHT22;16915;51.466;3.610;2023-12-04T01:21:57;2.90;99.90
30097;DHT22;16915;51.466;3.610;2023-12-04T01:24:23;2.90;99.90
30097;DHT22;16915;51.466;3.610;2023-12-04T01:26:48;2.90;99.90
30097;DHT22;16915;51.466;3.610;2023-12-04T01:29:14;2.90;99.90
30097;DHT22;16915;51.466;3.610;2023-12-04T01:31:39;2.90;99.90
30097;DHT22;16915;51.466;3.610;2023-12-04T01:34:05;2.90;99.90
30097;DHT22;16915;51.466;3.610;2023-12-04T01:36:30;2.90;99.90
30097;DHT22;16915;51.466;3.610;2023-12-04T01:38:56;2.90;99.90
30097;DHT22;16915;51.466;3.610;2023-12-04T01:41:21;2.90;99.90
30097;DHT22;16915;51.466;3.610;2023-12-04T01:43:47;2.90;99.90
30097;DHT22;16915;51.466;3.610;2023-12-04T01:46:15;3.00;99.90
30097;DHT22;16915;51.466;3.610;2023-12-04T01:48:43;3.00;99.90
30097;DHT22;16915;51.466;3.610;2023-12-04T01:51:10;3.00;99.90
30097;DHT22;16915;51.466;3.610;2023-12-04T01:53:38;3.00;99.90
30097;DHT22;16915;51.466;3.610;2023-12-04T01:56:05;2.90;99.90
30097;DHT22;16915;51.466;3.610;2023-12-04T01:58:31;3.00;99.90
30097;DHT22;16915;51.466;3.610;2023-12-04T02:00:57;3.00;99.90
30097;DHT22;16915;51.466;3.610;2023-12-04T02:03:23;3.00;99.90
30097;DHT22;16915;51.466;3.610;2023-12-04T02:05:51;3.00;99.90
30097;DHT22;16915;51.466;3.610;2023-12-04T02:08:17;3.00;99.90
30097;DHT22;16915;51.466;3.610;2023-12-04T02:10:43;3.00;99.90
30097;DHT22;16915;51.466;3.610;2023-12-04T02:13:09;3.10;99.90
30097;DHT22;16915;51.466;3.610;2023-12-04T02:15:34;3.10;99.90
30097;DHT22;16915;51.466;3.610;2023-12-04T02:18:01;3.10;99.90
30097;DHT22;16915;51.466;3.610;2023-12-04T02:20:34;3.10;99.90
30097;DHT22;16915;51.466;3.610;2023-12-04T02:23:01;3.10;99.90
30097;DHT22;16915;51.466;3.610;2023-12-04T02:25:27;3.20;99.90
30097;DHT22;16915;51.466;3.610;2023-12-04T02:27:54;3.10;99.90
30097;DHT22;16915;51.466;3.610;2023-12-04T02:30:23;3.20;99.90
30097;DHT22;16915;51.466;3.610;2023-12-04T02:32:50;3.20;99.90
30097;DHT22;16915;51.466;3.610;2023-12-04T02:35:20;3.20;99.90
30097;DHT22;16915;51.466;3.610;2023-12-04T02:37:47;3.20;99.90
30097;DHT22;16915;51.466;3.610;2023-12-04T02:40:12;3.20;99.90
30097;DHT22;16915;51.466;3.610;2023-12-04T02:42:39;3.20;99.90
30097;DHT22;16915;51.466;3.610;2023-12-04T02:45:05;3.20;99.90
30097;DHT22;16915;51.466;3.610;2023-12-04T02:47:31;3.20;99.90
30097;DHT22;16915;51.466;3.610;2023-12-04T02:49:56;3.20;99.90
30097;DHT22;16915;51.466;3.610;2023-12-04T02:52:22;3.20;99.90
30097;DHT22;16915;51.466;3.610;2023-12-04T02:54:47;3.20;99.90
30097;DHT22;16915;51.466;3.610;2023-12-04T02:57:13;3.20;99.90
30097;DHT22;16915;51.466;3.610;2023-12-04T02:59:38;3.30;99.90
30097;DHT22;16915;51.466;3.610;2023-12-04T03:02:04;3.30;99.90
30097;DHT22;16915;51.466;3.610;2023-12-04T03:04:30;3.30;99.90
30097;DHT22;16915;51.466;3.610;2023-12-04T03:06:56;3.30;99.90
30097;DHT22;16915;51.466;3.610;2023-12-04T03:09:22;3.30;99.90
30097;DHT22;16915;51.466;3.610;2023-12-04T03:11:48;3.30;99.90
30097;DHT22;16915;51.466;3.610;2023-12-04T03:14:13;3.30;99.90
30097;DHT22;16915;51.466;3.610;2023-12-04T03:16:39;3.30;99.90
30097;DHT22;16915;51.466;3.610;2023-12-04T03:19:05;3.20;99.90
30097;DHT22;16915;51.466;3.610;2023-12-04T03:21:30;3.20;99.90
30097;DHT22;16915;51.466;3.610;2023-12-04T03:23:56;3.20;99.90
30097;DHT22;16915;51.466;3.610;2023-12-04T03:26:22;3.20;99.90
30097;DHT22;16915;51.466;3.610;2023-12-04T03:28:47;3.20;99.90
30097;DHT22;16915;51.466;3.610;2023-12-04T03:31:13;3.20;99.90
30097;DHT22;16915;51.466;3.610;2023-12-04T03:33:38;3.20;99.90
30097;DHT22;16915;51.466;3.610;2023-12-04T03:36:04;3.20;99.90
30097;DHT22;16915;51.466;3.610;2023-12-04T03:38:30;3.10;99.90
30097;DHT22;16915;51.466;3.610;2023-12-04T03:40:56;3.10;99.90
30097;DHT22;16915;51.466;3.610;2023-12-04T03:43:21;3.10;99.90
30097;DHT22;16915;51.466;3.610;2023-12-04T03:45:47;3.10;99.90
30097;DHT22;16915;51.466;3.610;2023-12-04T03:48:12;3.00;99.90
30097;DHT22;16915;51.466;3.610;2023-12-04T03:50:38;3.00;99.90
30097;DHT22;16915;51.466;3.610;2023-12-04T03:53:04;3.00;99.90
30097;DHT22;16915;51.466;3.610;2023-12-04T03:55:29;3.00;99.90
30097;DHT22;16915;51.466;3.610;2023-12-04T03:57:56;2.90;99.90
30097;DHT22;16915;51.466;3.610;2023-12-04T04:00:22;3.00;99.90
30097;DHT22;16915;51.466;3.610;2023-12-04T04:02:48;3.00;99.90
30097;DHT22;16915;51.466;3.610;2023-12-04T04:05:14;3.00;99.90
30097;DHT22;16915;51.466;3.610;2023-12-04T04:07:40;3.00;99.90
30097;DHT22;16915;51.466;3.610;2023-12-04T04:10:06;3.00;99.90
30097;DHT22;16915;51.466;3.610;2023-12-04T04:12:32;3.00;99.90
30097;DHT22;16915;51.466;3.610;2023-12-04T04:14:58;3.00;99.90
30097;DHT22;16915;51.466;3.610;2023-12-04T04:17:23;3.00;99.90
30097;DHT22;16915;51.466;3.610;2023-12-04T04:19:52;3.00;99.90
30097;DHT22;16915;51.466;3.610;2023-12-04T04:22:18;3.10;99.90
30097;DHT22;16915;51.466;3.610;2023-12-04T04:24:43;3.10;99.90
30097;DHT22;16915;51.466;3.610;2023-12-04T04:27:09;3.10;99.90
30097;DHT22;16915;51.466;3.610;2023-12-04T04:29:34;3.10;99.90
30097;DHT22;16915;51.466;3.610;2023-12-04T04:32:00;3.10;99.90
30097;DHT22;16915;51.466;3.610;2023-12-04T04:34:25;3.20;99.90
30097;DHT22;16915;51.466;3.610;2023-12-04T04:36:51;3.20;99.90
30097;DHT22;16915;51.466;3.610;2023-12-04T04:39:16;3.20;99.90
30097;DHT22;16915;51.466;3.610;2023-12-04T04:41:42;3.20;99.90
30097;DHT22;16915;51.466;3.610;2023-12-04T04:44:07;3.30;99.90
30097;DHT22;16915;51.466;3.610;2023-12-04T04:46:33;3.30;99.90
30097;DHT22;16915;51.466;3.610;2023-12-04T04:48:58;3.40;99.90
30097;DHT22;16915;51.466;3.610;2023-12-04T04:51:24;3.40;99.90
30097;DHT22;16915;51.466;3.610;2023-12-04T04:53:50;3.40;99.90
30097;DHT22;16915;51.466;3.610;2023-12-04T04:56:15;3.40;99.90
30097;DHT22;16915;51.466;3.610;2023-12-04T04:58:41;3.50;99.90
30097;DHT22;16915;51.466;3.610;2023-12-04T05:01:07;3.50;99.90
30097;DHT22;16915;51.466;3.610;2023-12-04T05:03:33;3.50;99.90
30097;DHT22;16915;51.466;3.610;2023-12-04T05:05:59;3.50;99.90
30097;DHT22;16915;51.466;3.610;2023-12-04T05:08:24;3.50;99.90
30097;DHT22;16915;51.466;3.610;2023-12-04T05:10:50;3.50;99.90
30097;DHT22;16915;51.466;3.610;2023-12-04T05:13:15;3.60;99.90
30097;DHT22;16915;51.466;3.610;2023-12-04T05:15:41;3.60;99.90
30097;DHT22;16915;51.466;3.610;2023-12-04T05:18:06;3.60;99.90
30097;DHT22;16915;51.466;3.610;2023-12-04T05:20:32;3.60;99.90
30097;DHT22;16915;51.466;3.610;2023-12-04T05:22:58;3.60;99.90
30097;DHT22;16915;51.466;3.610;2023-12-04T05:25:23;3.60;99.90
30097;DHT22;16915;51.466;3.610;2023-12-04T05:27:49;3.60;99.90
30097;DHT22;16915;51.466;3.610;2023-12-04T05:30:14;3.60;99.90
30097;DHT22;16915;51.466;3.610;2023-12-04T05:32:40;3.70;99.90
30097;DHT22;16915;51.466;3.610;2023-12-04T05:35:06;3.70;99.90
30097;DHT22;16915;51.466;3.610;2023-12-04T05:37:31;3.70;99.90
30097;DHT22;16915;51.466;3.610;2023-12-04T05:39:57;3.70;99.90
30097;DHT22;16915;51.466;3.610;2023-12-04T05:42:23;3.70;99.90
30097;DHT22;16915;51.466;3.610;2023-12-04T05:44:48;3.70;99.90
30097;DHT22;16915;51.466;3.610;2023-12-04T05:47:14;3.70;99.90
30097;DHT22;16915;51.466;3.610;2023-12-04T05:49:40;3.70;99.90
30097;DHT22;16915;51.466;3.610;2023-12-04T05:52:05;3.70;99.90
30097;DHT22;16915;51.466;3.610;2023-12-04T05:54:31;3.70;99.90
30097;DHT22;16915;51.466;3.610;2023-12-04T05:56:57;3.70;99.90
30097;DHT22;16915;51.466;3.610;2023-12-04T05:59:22;3.70;99.90
30097;DHT22;16915;51.466;3.610;2023-12-04T06:01:48;3.80;99.90
30097;DHT22;16915;51.466;3.610;2023-12-04T06:04:13;3.90;99.90
30097;DHT22;16915;51.466;3.610;2023-12-04T06:06:39;3.80;99.90
30097;DHT22;16915;51.466;3.610;2023-12-04T06:09:04;3.90;99.90
30097;DHT22;16915;51.466;3.610;2023-12-04T06:11:30;3.90;99.90
30097;DHT22;16915;51.466;3.610;2023-12-04T06:13:56;3.80;99.90
30097;DHT22;16915;51.466;3.610;2023-12-04T06:16:21;3.80;99.90
30097;DHT22;16915;51.466;3.610;2023-12-04T06:18:47;3.80;99.90
30097;DHT22;16915;51.466;3.610;2023-12-04T06:21:12;3.80;99.90
30097;DHT22;16915;51.466;3.610;2023-12-04T06:23:38;3.80;99.90
30097;DHT22;16915;51.466;3.610;2023-12-04T06:26:04;3.70;99.90
30097;DHT22;16915;51.466;3.610;2023-12-04T06:28:31;3.60;99.90
30097;DHT22;16915;51.466;3.610;2023-12-04T06:30:58;3.60;99.90
30097;DHT22;16915;51.466;3.610;2023-12-04T06:33:24;3.60;99.90
30097;DHT22;16915;51.466;3.610;2023-12-04T06:35:50;3.60;99.90
30097;DHT22;16915;51.466;3.610;2023-12-04T06:38:16;3.50;99.90
30097;DHT22;16915;51.466;3.610;2023-12-04T06:40:44;3.60;99.90
30097;DHT22;16915;51.466;3.610;2023-12-04T06:43:10;3.60;99.90
30097;DHT22;16915;51.466;3.610;2023-12-04T06:45:36;3.60;99.90
30097;DHT22;16915;51.466;3.610;2023-12-04T06:48:01;3.50;99.90
30097;DHT22;16915;51.466;3.610;2023-12-04T06:50:27;3.50;99.90
30097;DHT22;16915;51.466;3.610;2023-12-04T06:52:53;3.60;99.90
30097;DHT22;16915;51.466;3.610;2023-12-04T06:55:18;3.60;99.90
30097;DHT22;16915;51.466;3.610;2023-12-04T06:57:44;3.60;99.90
30097;DHT22;16915;51.466;3.610;2023-12-04T07:00:10;3.60;99.90
30097;DHT22;16915;51.466;3.610;2023-12-04T07:02:38;3.60;99.90
30097;DHT22;16915;51.466;3.610;2023-12-04T07:05:03;3.70;99.90
30097;DHT22;16915;51.466;3.610;2023-12-04T07:07:29;3.60;99.90
30097;DHT22;16915;51.466;3.610;2023-12-04T07:09:55;3.70;99.90
30097;DHT22;16915;51.466;3.610;2023-12-04T07:12:20;3.70;99.90
30097;DHT22;16915;51.466;3.610;2023-12-04T07:14:47;3.60;99.90
30097;DHT22;16915;51.466;3.610;2023-12-04T07:17:12;3.70;99.90
30097;DHT22;16915;51.466;3.610;2023-12-04T07:19:38;3.70;99.90
30097;DHT22;16915;51.466;3.610;2023-12-04T07:22:03;3.80;99.90
30097;DHT22;16915;51.466;3.610;2023-12-04T07:24:29;3.80;99.90
30097;DHT22;16915;51.466;3.610;2023-12-04T07:26:54;3.80;99.90
30097;DHT22;16915;51.466;3.610;2023-12-04T07:29:20;3.90;99.90
30097;DHT22;16915;51.466;3.610;2023-12-04T07:31:46;3.90;99.90
30097;DHT22;16915;51.466;3.610;2023-12-04T07:34:11;3.90;99.90
30097;DHT22;16915;51.466;3.610;2023-12-04T07:36:37;3.90;99.90
30097;DHT22;16915;51.466;3.610;2023-12-04T07:39:02;3.90;99.90
30097;DHT22;16915;51.466;3.610;2023-12-04T07:41:31;3.80;99.90
30097;DHT22;16915;51.466;3.610;2023-12-04T07:43:57;3.90;99.90
30097;DHT22;16915;51.466;3.610;2023-12-04T07:46:22;3.90;99.90
30097;DHT22;16915;51.466;3.610;2023-12-04T07:48:48;3.90;99.90
30097;DHT22;16915;51.466;3.610;2023-12-04T07:51:14;3.90;99.90
30097;DHT22;16915;51.466;3.610;2023-12-04T07:53:39;3.80;99.90
30097;DHT22;16915;51.466;3.610;2023-12-04T07:56:05;3.90;99.90
30097;DHT22;16915;51.466;3.610;2023-12-04T07:58:31;3.90;99.90
30097;DHT22;16915;51.466;3.610;2023-12-04T08:00:58;3.90;99.90
30097;DHT22;16915;51.466;3.610;2023-12-04T08:03:23;3.90;99.90
30097;DHT22;16915;51.466;3.610;2023-12-04T08:05:52;3.80;99.90
30097;DHT22;16915;51.466;3.610;2023-12-04T08:08:18;3.90;99.90
30097;DHT22;16915;51.466;3.610;2023-12-04T08:10:44;3.80;99.90
30097;DHT22;16915;51.466;3.610;2023-12-04T08:13:09;3.90;99.90
30097;DHT22;16915;51.466;3.610;2023-12-04T08:15:35;3.90;99.90
30097;DHT22;16915;51.466;3.610;2023-12-04T08:18:00;3.90;99.90
30097;DHT22;16915;51.466;3.610;2023-12-04T08:20:26;3.80;99.90
30097;DHT22;16915;51.466;3.610;2023-12-04T08:22:51;3.90;99.90
30097;DHT22;16915;51.466;3.610;2023-12-04T08:25:17;3.90;99.90
30097;DHT22;16915;51.466;3.610;2023-12-04T08:27:43;3.90;99.90
30097;DHT22;16915;51.466;3.610;2023-12-04T08:30:08;3.90;99.90
30097;DHT22;16915;51.466;3.610;2023-12-04T08:32:34;4.00;99.90
30097;DHT22;16915;51.466;3.610;2023-12-04T08:35:00;3.90;99.90
30097;DHT22;16915;51.466;3.610;2023-12-04T08:37:25;4.00;99.90
30097;DHT22;16915;51.466;3.610;2023-12-04T08:39:51;4.00;99.90
30097;DHT22;16915;51.466;3.610;2023-12-04T08:42:16;4.00;99.90
30097;DHT22;16915;51.466;3.610;2023-12-04T08:44:42;4.00;99.90
30097;DHT22;16915;51.466;3.610;2023-12-04T08:47:08;4.00;99.90
30097;DHT22;16915;51.466;3.610;2023-12-04T08:49:34;4.00;99.90
30097;DHT22;16915;51.466;3.610;2023-12-04T08:51:59;3.90;99.90
30097;DHT22;16915;51.466;3.610;2023-12-04T08:54:25;4.00;99.90
30097;DHT22;16915;51.466;3.610;2023-12-04T08:56:50;4.00;99.90
30097;DHT22;16915;51.466;3.610;2023-12-04T08:59:16;4.00;99.90
30097;DHT22;16915;51.466;3.610;2023-12-04T09:01:42;4.00;99.90
30097;DHT22;16915;51.466;3.610;2023-12-04T09:04:09;4.00;99.90
30097;DHT22;16915;51.466;3.610;2023-12-04T09:06:35;4.10;99.90
30097;DHT22;16915;51.466;3.610;2023-12-04T09:09:01;4.10;99.90
30097;DHT22;16915;51.466;3.610;2023-12-04T09:11:27;4.00;99.90
30097;DHT22;16915;51.466;3.610;2023-12-04T09:13:53;4.10;99.90
30097;DHT22;16915;51.466;3.610;2023-12-04T09:16:19;4.00;99.90
30097;DHT22;16915;51.466;3.610;2023-12-04T09:18:44;4.10;99.90
30097;DHT22;16915;51.466;3.610;2023-12-04T09:21:10;4.00;99.90
30097;DHT22;16915;51.466;3.610;2023-12-04T09:23:35;4.10;99.90
30097;DHT22;16915;51.466;3.610;2023-12-04T09:26:01;4.10;99.90
30097;DHT22;16915;51.466;3.610;2023-12-04T09:28:27;4.10;99.90
30097;DHT22;16915;51.466;3.610;2023-12-04T09:30:52;4.10;99.90
30097;DHT22;16915;51.466;3.610;2023-12-04T09:33:18;4.20;99.90
30097;DHT22;16915;51.466;3.610;2023-12-04T09:35:44;4.20;99.90
30097;DHT22;16915;51.466;3.610;2023-12-04T09:38:10;4.20;99.90
30097;DHT22;16915;51.466;3.610;2023-12-04T09:40:35;4.20;99.90
30097;DHT22;16915;51.466;3.610;2023-12-04T09:43:01;4.10;99.90
30097;DHT22;16915;51.466;3.610;2023-12-04T09:45:29;4.20;99.90
30097;DHT22;16915;51.466;3.610;2023-12-04T09:47:56;4.20;99.90
30097;DHT22;16915;51.466;3.610;2023-12-04T09:50:22;4.20;99.90
30097;DHT22;16915;51.466;3.610;2023-12-04T09:52:52;4.20;99.90
30097;DHT22;16915;51.466;3.610;2023-12-04T09:55:20;4.10;99.90
30097;DHT22;16915;51.466;3.610;2023-12-04T09:57:46;4.10;99.90
30097;DHT22;16915;51.466;3.610;2023-12-04T10:00:15;4.20;99.90
30097;DHT22;16915;51.466;3.610;2023-12-04T10:02:41;4.10;99.90
30097;DHT22;16915;51.466;3.610;2023-12-04T10:05:09;4.10;99.90
30097;DHT22;16915;51.466;3.610;2023-12-04T10:07:35;4.10;99.90
30097;DHT22;16915;51.466;3.610;2023-12-04T10:10:05;4.10;99.90
30097;DHT22;16915;51.466;3.610;2023-12-04T10:12:32;4.10;99.90
30097;DHT22;16915;51.466;3.610;2023-12-04T10:15:06;4.10;99.90
30097;DHT22;16915;51.466;3.610;2023-12-04T10:17:36;4.10;99.90
30097;DHT22;16915;51.466;3.610;2023-12-04T10:20:08;4.10;99.90
30097;DHT22;16915;51.466;3.610;2023-12-04T10:22:39;4.20;99.90
30097;DHT22;16915;51.466;3.610;2023-12-04T10:25:17;4.20;99.90
30097;DHT22;16915;51.466;3.610;2023-12-04T10:27:43;4.20;99.90
30097;DHT22;16915;51.466;3.610;2023-12-04T10:30:09;4.20;99.90
30097;DHT22;16915;51.466;3.610;2023-12-04T10:32:39;4.20;99.90
30097;DHT22;16915;51.466;3.610;2023-12-04T10:35:05;4.20;99.90
30097;DHT22;16915;51.466;3.610;2023-12-04T10:37:36;4.20;99.90
30097;DHT22;16915;51.466;3.610;2023-12-04T10:40:02;4.20;99.90
30097;DHT22;16915;51.466;3.610;2023-12-04T10:42:29;4.10;99.90
30097;DHT22;16915;51.466;3.610;2023-12-04T10:44:58;4.10;99.90
30097;DHT22;16915;51.466;3.610;2023-12-04T10:47:24;4.10;99.90
30097;DHT22;16915;51.466;3.610;2023-12-04T10:49:51;4.10;99.90
30097;DHT22;16915;51.466;3.610;2023-12-04T10:52:17;4.10;99.90
30097;DHT22;16915;51.466;3.610;2023-12-04T10:54:50;4.10;99.90
30097;DHT22;16915;51.466;3.610;2023-12-04T10:57:26;4.00;99.90
30097;DHT22;16915;51.466;3.610;2023-12-04T10:59:56;4.00;99.90
30097;DHT22;16915;51.466;3.610;2023-12-04T11:02:25;4.00;99.90
30097;DHT22;16915;51.466;3.610;2023-12-04T11:04:55;4.00;99.90
30097;DHT22;16915;51.466;3.610;2023-12-04T11:07:23;4.00;99.90
30097;DHT22;16915;51.466;3.610;2023-12-04T11:09:50;4.00;99.90
30097;DHT22;16915;51.466;3.610;2023-12-04T11:12:18;3.90;99.90
30097;DHT22;16915;51.466;3.610;2023-12-04T11:14:50;3.80;99.90
30097;DHT22;16915;51.466;3.610;2023-12-04T11:17:19;3.80;99.90
30097;DHT22;16915;51.466;3.610;2023-12-04T11:19:59;3.80;99.90
30097;DHT22;16915;51.466;3.610;2023-12-04T11:22:27;3.70;99.90
30097;DHT22;16915;51.466;3.610;2023-12-04T11:24:53;3.70;99.90
30097;DHT22;16915;51.466;3.610;2023-12-04T11:27:20;3.70;99.90
30097;DHT22;16915;51.466;3.610;2023-12-04T11:29:46;3.70;99.90
30097;DHT22;16915;51.466;3.610;2023-12-04T11:32:14;3.70;99.90
30097;DHT22;16915;51.466;3.610;2023-12-04T11:34:50;3.80;99.90
30097;DHT22;16915;51.466;3.610;2023-12-04T11:37:17;3.80;99.90
30097;DHT22;16915;51.466;3.610;2023-12-04T11:39:46;3.90;99.90
30097;DHT22;16915;51.466;3.610;2023-12-04T11:42:13;3.90;99.90
30097;DHT22;16915;51.466;3.610;2023-12-04T11:44:41;3.90;99.90
30097;DHT22;16915;51.466;3.610;2023-12-04T11:47:06;3.90;99.90
30097;DHT22;16915;51.466;3.610;2023-12-04T11:49:32;3.90;99.90
30097;DHT22;16915;51.466;3.610;2023-12-04T11:52:00;3.90;99.90
30097;DHT22;16915;51.466;3.610;2023-12-04T11:54:27;3.90;99.90
30097;DHT22;16915;51.466;3.610;2023-12-04T11:57:19;3.90;99.90
30097;DHT22;16915;51.466;3.610;2023-12-04T11:59:46;4.00;99.90
30097;DHT22;16915;51.466;3.610;2023-12-04T12:02:13;4.00;99.90
30097;DHT22;16915;51.466;3.610;2023-12-04T12:04:39;4.00;99.90
30097;DHT22;16915;51.466;3.610;2023-12-04T12:07:07;4.10;99.90
30097;DHT22;16915;51.466;3.610;2023-12-04T12:09:33;4.10;99.90
30097;DHT22;16915;51.466;3.610;2023-12-04T12:12:01;4.10;99.90
30097;DHT22;16915;51.466;3.610;2023-12-04T12:14:27;4.10;99.90
30097;DHT22;16915;51.466;3.610;2023-12-04T12:16:54;4.00;99.90
30097;DHT22;16915;51.466;3.610;2023-12-04T12:19:20;4.00;99.90
30097;DHT22;16915;51.466;3.610;2023-12-04T12:21:48;4.00;99.90
30097;DHT22;16915;51.466;3.610;2023-12-04T12:24:14;4.00;99.90
30097;DHT22;16915;51.466;3.610;2023-12-04T12:26:40;4.00;99.90
30097;DHT22;16915;51.466;3.610;2023-12-04T12:29:08;4.10;99.90
30097;DHT22;16915;51.466;3.610;2023-12-04T12:31:34;4.10;99.90
30097;DHT22;16915;51.466;3.610;2023-12-04T12:33:59;4.10;99.90
30097;DHT22;16915;51.466;3.610;2023-12-04T12:36:25;4.10;99.90
30097;DHT22;16915;51.466;3.610;2023-12-04T12:38:51;4.10;99.90
30097;DHT22;16915;51.466;3.610;2023-12-04T12:41:17;4.10;99.90
30097;DHT22;16915;51.466;3.610;2023-12-04T12:43:43;4.10;99.90
30097;DHT22;16915;51.466;3.610;2023-12-04T12:46:10;4.10;99.90
30097;DHT22;16915;51.466;3.610;2023-12-04T12:48:35;4.10;99.90
30097;DHT22;16915;51.466;3.610;2023-12-04T12:51:02;4.10;99.90
30097;DHT22;16915;51.466;3.610;2023-12-04T12:53:28;4.10;99.90
30097;DHT22;16915;51.466;3.610;2023-12-04T12:55:57;4.10;99.90
30097;DHT22;16915;51.466;3.610;2023-12-04T12:58:24;4.10;99.90
30097;DHT22;16915;51.466;3.610;2023-12-04T13:00:50;4.10;99.90
30097;DHT22;16915;51.466;3.610;2023-12-04T13:03:16;4.10;99.90
30097;DHT22;16915;51.466;3.610;2023-12-04T13:05:42;4.10;99.90
30097;DHT22;16915;51.466;3.610;2023-12-04T13:08:07;4.00;99.90
30097;DHT22;16915;51.466;3.610;2023-12-04T13:10:33;4.00;99.90
30097;DHT22;16915;51.466;3.610;2023-12-04T13:12:58;3.90;99.90
30097;DHT22;16915;51.466;3.610;2023-12-04T13:15:28;4.00;99.90
30097;DHT22;16915;51.466;3.610;2023-12-04T13:17:54;3.90;99.90
30097;DHT22;16915;51.466;3.610;2023-12-04T13:20:19;3.90;99.90
30097;DHT22;16915;51.466;3.610;2023-12-04T13:22:45;3.80;99.90
30097;DHT22;16915;51.466;3.610;2023-12-04T13:25:11;3.80;99.90
30097;DHT22;16915;51.466;3.610;2023-12-04T13:27:37;3.70;99.90
30097;DHT22;16915;51.466;3.610;2023-12-04T13:30:06;3.70;99.90
30097;DHT22;16915;51.466;3.610;2023-12-04T13:32:37;3.70;99.90
30097;DHT22;16915;51.466;3.610;2023-12-04T13:35:04;3.70;99.90
30097;DHT22;16915;51.466;3.610;2023-12-04T13:37:39;3.70;99.90
30097;DHT22;16915;51.466;3.610;2023-12-04T13:40:05;3.70;99.90
30097;DHT22;16915;51.466;3.610;2023-12-04T13:42:33;3.70;99.90
30097;DHT22;16915;51.466;3.610;2023-12-04T13:45:17;3.60;99.90
30097;DHT22;16915;51.466;3.610;2023-12-04T13:47:46;3.60;99.90
30097;DHT22;16915;51.466;3.610;2023-12-04T13:50:11;3.60;99.90
30097;DHT22;16915;51.466;3.610;2023-12-04T13:52:37;3.60;99.90
30097;DHT22;16915;51.466;3.610;2023-12-04T13:55:05;3.50;99.90
30097;DHT22;16915;51.466;3.610;2023-12-04T13:57:45;3.50;99.90
30097;DHT22;16915;51.466;3.610;2023-12-04T14:00:36;3.40;99.90
30097;DHT22;16915;51.466;3.610;2023-12-04T14:03:02;3.40;99.90
30097;DHT22;16915;51.466;3.610;2023-12-04T14:05:33;3.40;99.90
30097;DHT22;16915;51.466;3.610;2023-12-04T14:07:59;3.40;99.90
30097;DHT22;16915;51.466;3.610;2023-12-04T14:10:26;3.40;99.90
30097;DHT22;16915;51.466;3.610;2023-12-04T14:12:52;3.40;99.90
30097;DHT22;16915;51.466;3.610;2023-12-04T14:15:18;3.40;99.90
30097;DHT22;16915;51.466;3.610;2023-12-04T14:17:44;3.40;99.90
30097;DHT22;16915;51.466;3.610;2023-12-04T14:20:11;3.40;99.90
30097;DHT22;16915;51.466;3.610;2023-12-04T14:22:43;3.40;99.90
30097;DHT22;16915;51.466;3.610;2023-12-04T14:25:09;3.40;99.90
30097;DHT22;16915;51.466;3.610;2023-12-04T14:27:35;3.40;99.90
30097;DHT22;16915;51.466;3.610;2023-12-04T14:30:02;3.50;99.90
30097;DHT22;16915;51.466;3.610;2023-12-04T14:32:29;3.40;99.90
30097;DHT22;16915;51.466;3.610;2023-12-04T14:34:54;3.40;99.90
30097;DHT22;16915;51.466;3.610;2023-12-04T14:37:20;3.50;99.90
30097;DHT22;16915;51.466;3.610;2023-12-04T14:39:45;3.50;99.90
30097;DHT22;16915;51.466;3.610;2023-12-04T14:42:11;3.50;99.90
30097;DHT22;16915;51.466;3.610;2023-12-04T14:44:37;3.50;99.90
30097;DHT22;16915;51.466;3.610;2023-12-04T14:47:02;3.50;99.90
30097;DHT22;16915;51.466;3.610;2023-12-04T14:49:29;3.50;99.90
30097;DHT22;16915;51.466;3.610;2023-12-04T14:51:55;3.50;99.90
30097;DHT22;16915;51.466;3.610;2023-12-04T14:54:21;3.50;99.90
30097;DHT22;16915;51.466;3.610;2023-12-04T14:56:47;3.50;99.90
30097;DHT22;16915;51.466;3.610;2023-12-04T14:59:52;3.50;99.90
30097;DHT22;16915;51.466;3.610;2023-12-04T15:02:36;3.60;99.90
30097;DHT22;16915;51.466;3.610;2023-12-04T15:05:14;3.60;99.90
30097;DHT22;16915;51.466;3.610;2023-12-04T15:07:58;3.60;99.90
30097;DHT22;16915;51.466;3.610;2023-12-04T15:10:33;3.60;99.90
30097;DHT22;16915;51.466;3.610;2023-12-04T15:13:08;3.60;99.90
30097;DHT22;16915;51.466;3.610;2023-12-04T15:15:52;3.60;99.90
30097;DHT22;16915;51.466;3.610;2023-12-04T15:18:37;3.60;99.90
30097;DHT22;16915;51.466;3.610;2023-12-04T15:21:09;3.60;99.90
30097;DHT22;16915;51.466;3.610;2023-12-04T15:23:34;3.50;99.90
30097;DHT22;16915;51.466;3.610;2023-12-04T15:26:00;3.50;99.90
30097;DHT22;16915;51.466;3.610;2023-12-04T15:28:27;3.50;99.90
30097;DHT22;16915;51.466;3.610;2023-12-04T15:30:53;3.50;99.90
30097;DHT22;16915;51.466;3.610;2023-12-04T15:33:18;3.50;99.90
30097;DHT22;16915;51.466;3.610;2023-12-04T15:35:45;3.40;99.90
30097;DHT22;16915;51.466;3.610;2023-12-04T15:38:11;3.50;99.90
30097;DHT22;16915;51.466;3.610;2023-12-04T15:40:36;3.50;99.90
30097;DHT22;16915;51.466;3.610;2023-12-04T15:43:02;3.50;99.90